createdAt,value
2018-10-12T00:01:16.453Z,62.42
2018-10-12T00:03:46.976Z,61.95
2018-10-12T00:06:17.375Z,61.22
2018-10-12T00:08:47.748Z,62.07
2018-10-12T00:11:18.255Z,62.15
2018-10-12T00:13:48.737Z,62.32
2018-10-12T00:16:19.246Z,63.43
2018-10-12T00:18:49.661Z,63.23
2018-10-12T00:21:20.076Z,62.88
2018-10-12T00:23:50.528Z,62.51
2018-10-12T00:26:21.011Z,63.02
2018-10-12T00:28:51.539Z,62.98
2018-10-12T00:31:22.128Z,62.84
2018-10-12T00:33:52.582Z,63.44
2018-10-12T00:36:23.068Z,62.62
2018-10-12T00:38:53.296Z,63.00
2018-10-12T00:41:23.713Z,63.37
2018-10-12T00:43:54.090Z,63.19
2018-10-12T00:46:24.593Z,62.52
2018-10-12T00:48:55.096Z,63.09
2018-10-12T00:51:25.410Z,63.04
2018-10-12T00:53:55.930Z,63.56
2018-10-12T00:56:26.311Z,63.68
2018-10-12T00:58:57.144Z,64.15
2018-10-12T01:01:27.476Z,63.73
2018-10-12T01:03:57.703Z,63.93
2018-10-12T01:06:28.159Z,64.20
2018-10-12T01:08:58.709Z,63.71
2018-10-12T01:11:29.073Z,63.54
2018-10-12T01:13:59.811Z,63.85
2018-10-12T01:16:30.271Z,63.86
2018-10-12T01:19:00.854Z,64.24
2018-10-12T01:21:31.549Z,63.51
2018-10-12T01:24:02.097Z,64.07
2018-10-12T01:26:32.835Z,64.03
2018-10-12T01:29:03.340Z,63.45
2018-10-12T01:31:33.683Z,63.72
2018-10-12T01:34:04.205Z,63.12
2018-10-12T01:36:34.749Z,63.31
2018-10-12T01:39:05.607Z,63.60
2018-10-12T01:41:36.139Z,64.13
2018-10-12T01:44:06.728Z,63.35
2018-10-12T01:46:37.215Z,63.90
2018-10-12T01:49:07.803Z,64.28
2018-10-12T01:51:38.393Z,63.87
2018-10-12T01:54:09.024Z,64.03
2018-10-12T01:56:39.647Z,63.52
2018-10-12T01:59:10.080Z,64.07
2018-10-12T02:01:40.531Z,63.38
2018-10-12T02:04:10.992Z,63.70
2018-10-12T02:06:41.884Z,64.25
2018-10-12T02:09:12.180Z,63.72
2018-10-12T02:11:42.601Z,63.99
2018-10-12T02:14:12.937Z,64.41
2018-10-12T02:16:43.191Z,63.71
2018-10-12T02:19:13.768Z,64.50
2018-10-12T02:21:44.246Z,65.21
2018-10-12T02:24:14.576Z,65.84
2018-10-12T02:26:45.126Z,65.33
2018-10-12T02:29:15.447Z,65.14
2018-10-12T02:31:46.003Z,65.37
2018-10-12T02:34:16.362Z,65.07
2018-10-12T02:36:46.769Z,64.90
2018-10-12T02:39:17.272Z,64.53
2018-10-12T02:41:47.820Z,65.17
2018-10-12T02:44:18.224Z,65.17
2018-10-12T02:46:48.591Z,64.71
2018-10-12T02:49:18.961Z,64.87
2018-10-12T02:51:49.380Z,64.59
2018-10-12T02:54:19.726Z,64.75
2018-10-12T02:56:50.187Z,65.26
2018-10-12T02:59:20.448Z,64.85
2018-10-12T03:01:50.944Z,64.53
2018-10-12T03:04:21.333Z,64.21
2018-10-12T03:06:51.701Z,64.96
2018-10-12T03:09:22.100Z,64.52
2018-10-12T03:11:52.364Z,64.13
2018-10-12T03:14:22.720Z,64.14
2018-10-12T03:16:53.323Z,63.83
2018-10-12T03:19:23.830Z,64.25
2018-10-12T03:21:54.194Z,65.20
2018-10-12T03:24:25.708Z,65.49
2018-10-12T03:26:56.043Z,64.76
2018-10-12T03:29:26.684Z,64.70
2018-10-12T03:31:57.354Z,65.23
2018-10-12T03:34:28.110Z,65.34
2018-10-12T03:36:58.792Z,65.54
2018-10-12T03:39:29.440Z,65.74
2018-10-12T03:41:59.911Z,65.48
2018-10-12T03:44:30.301Z,65.75
2018-10-12T03:47:00.946Z,65.06
2018-10-12T03:49:31.371Z,65.63
2018-10-12T03:52:04.594Z,65.72
2018-10-12T03:54:35.178Z,66.13
2018-10-12T03:57:05.630Z,66.67
2018-10-12T03:59:36.041Z,67.18
2018-10-12T04:02:06.315Z,67.97
2018-10-12T04:04:36.572Z,68.42
2018-10-12T04:07:07.468Z,68.08
2018-10-12T04:09:37.955Z,68.26
2018-10-12T04:12:09.112Z,68.84
2018-10-12T04:14:39.541Z,68.57
2018-10-12T04:17:10.038Z,68.70
2018-10-12T04:19:40.414Z,68.30
2018-10-12T04:22:10.863Z,68.31
2018-10-12T04:24:41.029Z,69.69
2018-10-12T04:27:11.516Z,69.72
2018-10-12T04:29:41.936Z,68.98
2018-10-12T04:32:12.315Z,69.39
2018-10-12T04:34:42.552Z,69.62
2018-10-12T04:37:13.082Z,68.44
2018-10-12T04:41:20.749Z,68.69
2018-10-12T04:43:52.600Z,67.94
2018-10-12T04:46:34.351Z,67.54
2018-10-12T04:49:06.527Z,66.29
2018-10-12T04:51:42.982Z,65.98
2018-10-12T04:54:13.512Z,66.13
2018-10-12T04:56:44.277Z,65.21
2018-10-12T04:59:14.888Z,66.12
2018-10-12T05:01:45.509Z,65.24
2018-10-12T05:04:15.967Z,65.87
2018-10-12T05:06:46.559Z,65.25
2018-10-12T05:09:17.199Z,65.80
2018-10-12T05:11:47.660Z,65.40
2018-10-12T05:14:18.702Z,65.66
2018-10-12T05:16:49.231Z,65.85
2018-10-12T05:19:19.659Z,66.24
2018-10-12T05:21:50.096Z,65.35
2018-10-12T05:24:20.536Z,64.61
2018-10-12T05:26:51.131Z,64.71
2018-10-12T05:29:21.373Z,65.57
2018-10-12T05:31:51.785Z,65.19
2018-10-12T05:34:22.254Z,66.64
2018-10-12T05:36:52.836Z,66.28
2018-10-12T05:39:23.343Z,66.67
2018-10-12T05:41:53.852Z,67.45
2018-10-12T05:44:24.623Z,67.99
2018-10-12T05:46:55.187Z,66.96
2018-10-12T05:49:42.036Z,67.87
2018-10-12T05:52:12.549Z,67.04
2018-10-12T05:54:43.136Z,67.44
2018-10-12T05:57:13.996Z,67.87
2018-10-12T05:59:44.616Z,67.93
2018-10-12T06:02:15.229Z,68.17
2018-10-12T06:04:45.984Z,67.12
2018-10-12T06:07:17.600Z,67.87
2018-10-12T06:09:48.421Z,68.17
2018-10-12T06:12:19.262Z,65.86
2018-10-12T06:17:50.605Z,58.19
2018-10-12T06:20:21.037Z,55.88
2018-10-12T06:22:51.340Z,54.62
2018-10-12T06:25:21.804Z,52.49
2018-10-12T06:27:52.218Z,51.37
2018-10-12T06:30:22.601Z,51.40
2018-10-12T06:32:53.063Z,48.28
2018-10-12T06:35:23.336Z,48.04
2018-10-12T06:37:53.812Z,46.46
2018-10-12T06:40:24.337Z,46.97
2018-10-12T06:42:54.719Z,47.36
2018-10-12T06:45:25.028Z,46.10
2018-10-12T06:47:55.349Z,44.54
2018-10-12T06:50:25.807Z,42.87
2018-10-12T06:52:56.361Z,42.98
2018-10-12T06:55:26.878Z,41.42
2018-10-12T06:57:57.504Z,42.59
2018-10-12T07:00:28.074Z,41.70
2018-10-12T07:02:58.792Z,41.51
2018-10-12T07:05:29.487Z,42.52
2018-10-12T07:08:00.300Z,43.84
2018-10-12T07:10:31.184Z,42.33
2018-10-12T07:13:01.928Z,41.03
2018-10-12T07:15:33.276Z,41.04
2018-10-12T07:18:03.676Z,41.71
2018-10-12T07:20:34.204Z,42.07
2018-10-12T07:23:04.937Z,41.68
2018-10-12T07:25:35.291Z,40.44
2018-10-12T07:28:06.597Z,39.15
2018-10-12T07:30:37.959Z,40.92
2018-10-12T07:33:08.348Z,40.52
2018-10-12T07:35:38.850Z,39.69
2018-10-12T07:38:09.384Z,39.34
2018-10-12T07:40:39.687Z,40.51
2018-10-12T07:43:10.152Z,40.61
2018-10-12T07:45:40.522Z,41.38
2018-10-12T07:48:10.867Z,41.02
2018-10-12T07:50:41.349Z,41.77
2018-10-12T07:53:11.897Z,40.26
2018-10-12T07:55:42.359Z,38.28
2018-10-12T07:58:13.335Z,37.92
2018-10-12T08:00:44.231Z,37.21
2018-10-12T08:03:14.752Z,37.22
2018-10-12T08:05:45.211Z,37.38
2018-10-12T08:08:16.196Z,36.47
2018-10-12T08:10:46.792Z,35.80
2018-10-12T08:13:17.293Z,35.20
2018-10-12T08:15:47.917Z,36.20
2018-10-12T08:18:18.404Z,33.59
2018-10-12T08:20:48.987Z,33.55
2018-10-12T08:23:19.307Z,33.66
2018-10-12T08:25:50.468Z,34.04
2018-10-12T08:28:21.200Z,34.07
2018-10-12T08:30:51.533Z,34.56
2018-10-12T08:33:22.077Z,34.46
2018-10-12T08:35:52.782Z,34.02
2018-10-12T08:38:23.230Z,34.50
2018-10-12T08:40:53.725Z,33.49
2018-10-12T08:43:24.055Z,34.28
2018-10-12T08:45:54.450Z,35.67
2018-10-12T08:48:24.923Z,36.02
2018-10-12T08:50:55.886Z,35.77
2018-10-12T08:53:26.307Z,35.94
2018-10-12T08:55:56.891Z,35.78
2018-10-12T08:58:27.279Z,37.19
2018-10-12T09:00:57.520Z,36.24
2018-10-12T09:03:27.925Z,36.69
2018-10-12T09:05:58.502Z,36.84
2018-10-12T09:08:29.692Z,38.46
2018-10-12T09:11:00.096Z,37.17
2018-10-12T09:13:30.454Z,38.63
2018-10-12T09:16:02.311Z,37.38
2018-10-12T09:18:32.990Z,38.68
2018-10-12T09:21:03.752Z,39.13
2018-10-12T09:23:34.147Z,39.17
2018-10-12T09:26:04.750Z,40.43
2018-10-12T09:28:35.109Z,40.05
2018-10-12T09:31:05.641Z,40.52
2018-10-12T09:33:35.964Z,40.42
2018-10-12T09:36:06.612Z,41.28
2018-10-12T09:38:37.204Z,41.03
2018-10-12T09:41:07.793Z,40.55
2018-10-12T09:43:38.298Z,40.49
2018-10-12T09:46:08.732Z,41.12
2018-10-12T09:48:38.971Z,40.91
2018-10-12T09:51:09.532Z,40.64
2018-10-12T09:53:40.507Z,41.50
2018-10-12T09:56:11.080Z,41.24
2018-10-12T09:58:41.530Z,41.25
2018-10-12T10:01:16.984Z,41.47
2018-10-12T10:03:52.240Z,41.21
2018-10-12T10:06:22.677Z,42.12
2018-10-12T10:08:53.284Z,41.23
2018-10-12T10:11:23.761Z,42.54
2018-10-12T10:13:54.551Z,42.59
2018-10-12T10:16:25.203Z,42.62
2018-10-12T10:18:55.674Z,41.27
2018-10-12T10:21:26.060Z,42.74
2018-10-12T10:23:56.279Z,41.33
2018-10-12T10:26:26.918Z,41.46
2018-10-12T10:28:57.324Z,41.78
2018-10-12T10:31:27.790Z,41.94
2018-10-12T10:33:58.294Z,40.69
2018-10-12T10:36:28.558Z,40.47
2018-10-12T10:38:59.188Z,41.99
2018-10-12T10:41:29.712Z,41.25
2018-10-12T10:44:00.131Z,40.70
2018-10-12T10:46:30.727Z,40.39
2018-10-12T10:49:01.235Z,40.01
2018-10-12T10:51:31.597Z,40.25
2018-10-12T10:54:01.937Z,40.76
2018-10-12T10:56:32.332Z,40.01
2018-10-12T10:59:02.915Z,42.12
2018-10-12T11:01:33.473Z,42.65
2018-10-12T11:04:03.862Z,41.76
2018-10-12T11:06:34.246Z,41.06
2018-10-12T11:09:05.774Z,41.30
2018-10-12T11:11:36.034Z,40.09
2018-10-12T11:14:06.491Z,40.89
2018-10-12T11:16:37.072Z,40.81
2018-10-12T11:19:07.477Z,41.03
2018-10-12T11:21:37.969Z,40.50
2018-10-12T11:24:08.703Z,40.62
2018-10-12T11:26:39.282Z,40.74
2018-10-12T11:29:09.695Z,39.99
2018-10-12T11:31:40.165Z,40.48
2018-10-12T11:34:10.655Z,40.76
2018-10-12T11:36:41.322Z,40.78
2018-10-12T11:39:14.487Z,40.24
2018-10-12T11:41:45.116Z,41.26
2018-10-12T11:44:15.336Z,40.63
2018-10-12T11:46:45.756Z,40.32
2018-10-12T11:49:16.315Z,41.06
2018-10-12T11:51:46.814Z,41.00
2018-10-12T11:54:17.188Z,40.97
2018-10-12T11:56:47.632Z,40.93
2018-10-12T11:59:17.913Z,40.81
2018-10-12T12:01:48.552Z,40.45
2018-10-12T12:04:19.172Z,41.84
2018-10-12T12:06:50.049Z,40.95
2018-10-12T12:09:20.384Z,40.31
2018-10-12T12:11:50.925Z,41.19
2018-10-12T12:14:21.349Z,40.21
2018-10-12T12:16:51.823Z,41.24
2018-10-12T12:19:22.155Z,41.14
2018-10-12T12:21:52.444Z,40.96
2018-10-12T12:24:22.771Z,41.80
2018-10-12T12:26:53.357Z,41.17
2018-10-12T12:29:23.612Z,40.62
2018-10-12T12:31:54.372Z,41.50
2018-10-12T12:34:24.763Z,41.50
2018-10-12T12:36:55.145Z,40.79
2018-10-12T12:39:25.552Z,40.73
2018-10-12T12:41:56.631Z,40.58
2018-10-12T12:44:26.924Z,41.45
2018-10-12T12:47:03.445Z,40.47
2018-10-12T12:49:33.986Z,40.60
2018-10-12T12:52:04.278Z,41.13
2018-10-12T12:54:34.713Z,40.64
2018-10-12T12:57:05.316Z,41.32
2018-10-12T12:59:36.161Z,39.92
2018-10-12T13:02:06.763Z,41.25
2018-10-12T13:04:37.124Z,41.40
2018-10-12T13:07:07.623Z,40.33
2018-10-12T13:09:37.861Z,40.80
2018-10-12T13:12:08.352Z,40.10
2018-10-12T13:14:38.736Z,40.38
2018-10-12T13:17:09.320Z,40.66
2018-10-12T13:19:40.435Z,41.16
2018-10-12T13:22:11.171Z,40.95
2018-10-12T13:24:41.566Z,40.83
2018-10-12T13:27:12.175Z,40.45
2018-10-12T13:29:42.784Z,40.86
2018-10-12T13:32:12.995Z,41.29
2018-10-12T13:34:43.419Z,41.46
2018-10-12T13:37:13.879Z,40.86
2018-10-12T13:39:44.185Z,40.34
2018-10-12T13:42:14.423Z,40.94
2018-10-12T13:44:44.829Z,40.45
2018-10-12T13:47:15.241Z,40.69
2018-10-12T13:49:45.815Z,41.39
2018-10-12T13:52:16.425Z,40.38
2018-10-12T13:54:46.672Z,40.86
2018-10-12T13:57:16.951Z,40.72
2018-10-12T13:59:47.292Z,40.93
2018-10-12T14:02:17.766Z,41.28
2018-10-12T14:04:48.155Z,42.29
2018-10-12T14:07:18.653Z,41.71
2018-10-12T14:09:48.901Z,41.82
2018-10-12T14:12:19.433Z,41.89
2018-10-12T14:14:50.574Z,41.76
2018-10-12T14:17:21.078Z,41.45
2018-10-12T14:19:51.386Z,41.76
2018-10-12T14:22:21.725Z,42.08
2018-10-12T14:24:52.244Z,42.15
2018-10-12T14:27:22.835Z,41.64
2018-10-12T14:29:53.311Z,42.10
2018-10-12T14:32:23.647Z,41.42
2018-10-12T14:34:53.954Z,41.74
2018-10-12T14:37:24.357Z,42.10
2018-10-12T14:39:54.799Z,41.66
2018-10-12T14:42:25.316Z,41.77
2018-10-12T14:44:55.940Z,42.32
2018-10-12T14:47:26.629Z,42.77
2018-10-12T14:49:57.030Z,43.28
2018-10-12T14:52:27.419Z,43.27
2018-10-12T14:54:57.832Z,42.95
2018-10-12T14:57:29.055Z,43.03
2018-10-12T14:59:59.596Z,43.76
2018-10-12T15:02:30.274Z,43.93
2018-10-12T15:05:00.568Z,43.46
2018-10-12T15:07:31.041Z,44.10
2018-10-12T15:10:01.537Z,44.30
2018-10-12T15:12:31.913Z,44.13
2018-10-12T15:15:19.726Z,43.90
2018-10-12T15:17:51.092Z,45.07
2018-10-12T15:20:21.839Z,44.64
2018-10-12T15:22:52.428Z,44.81
2018-10-12T15:25:22.939Z,44.73
2018-10-12T15:27:53.411Z,45.10
2018-10-12T15:30:23.920Z,45.42
2018-10-12T15:32:54.401Z,45.66
2018-10-12T15:35:24.979Z,45.85
2018-10-12T15:37:55.463Z,46.20
2018-10-12T15:40:26.644Z,46.46
2018-10-12T15:42:57.349Z,47.64
2018-10-12T15:45:27.600Z,47.50
2018-10-12T15:47:57.997Z,48.21
2018-10-12T15:50:28.276Z,48.81
2018-10-12T15:52:58.539Z,47.81
2018-10-12T15:55:28.944Z,48.03
2018-10-12T15:57:59.216Z,49.88
2018-10-12T16:00:47.265Z,49.54
2018-10-12T16:03:17.820Z,48.93
2018-10-12T16:05:48.272Z,49.78
2018-10-12T16:08:18.827Z,50.25
2018-10-12T16:10:49.223Z,50.81
2018-10-12T16:13:19.975Z,51.05
2018-10-12T16:15:50.756Z,51.07
2018-10-12T16:18:21.263Z,50.79
2018-10-12T16:20:51.566Z,51.35
2018-10-12T16:23:22.927Z,52.11
2018-10-12T16:26:10.112Z,52.56
2018-10-12T16:28:40.556Z,52.89
2018-10-12T16:31:11.187Z,52.86
2018-10-12T16:33:41.775Z,52.80
2018-10-12T16:36:12.105Z,53.39
2018-10-12T16:38:42.567Z,52.97
2018-10-12T16:41:12.778Z,53.30
2018-10-12T16:43:43.275Z,53.22
2018-10-12T16:46:13.588Z,53.76
2018-10-12T16:48:44.072Z,53.40
2018-10-12T16:51:14.425Z,54.15
2018-10-12T16:53:44.819Z,54.19
2018-10-12T16:56:15.202Z,54.63
2018-10-12T16:58:45.708Z,54.61
2018-10-12T17:01:16.167Z,55.17
2018-10-12T17:03:46.661Z,55.79
2018-10-12T17:06:17.123Z,55.88
2018-10-12T17:08:47.491Z,55.66
2018-10-12T17:11:18.120Z,55.35
2018-10-12T17:13:48.507Z,55.39
2018-10-12T17:16:18.746Z,56.20
2018-10-12T17:18:49.127Z,56.36
2018-10-12T17:21:19.380Z,56.33
2018-10-12T17:23:49.726Z,56.08
2018-10-12T17:26:20.051Z,56.83
2018-10-12T17:28:50.528Z,57.10
2018-10-12T17:31:21.023Z,57.91
2018-10-12T17:33:51.255Z,56.66
2018-10-12T17:36:21.584Z,57.29
2018-10-12T17:38:52.035Z,57.36
2018-10-12T17:41:22.590Z,58.13
2018-10-12T17:43:53.251Z,57.50
2018-10-12T17:46:23.715Z,56.78
2018-10-12T17:48:54.051Z,56.97
2018-10-12T17:51:24.372Z,56.70
2018-10-12T17:53:54.704Z,57.64
2018-10-12T17:56:25.135Z,58.18
2018-10-12T17:58:55.617Z,57.31
2018-10-12T18:01:26.320Z,57.42
2018-10-12T18:03:56.522Z,58.16
2018-10-12T18:06:26.929Z,58.30
2018-10-12T18:08:57.482Z,57.94
2018-10-12T18:11:27.976Z,57.57
2018-10-12T18:13:58.424Z,57.50
2018-10-12T18:16:29.489Z,57.76
2018-10-12T18:18:59.856Z,57.93
2018-10-12T18:21:30.256Z,57.50
2018-10-12T18:24:00.584Z,56.67
2018-10-12T18:26:31.188Z,56.71
2018-10-12T18:29:01.754Z,57.85
2018-10-12T18:31:32.759Z,58.38
2018-10-12T18:34:03.262Z,58.62
2018-10-12T18:36:34.360Z,58.57
2018-10-12T18:39:06.048Z,59.41
2018-10-12T18:41:36.559Z,59.28
2018-10-12T18:44:07.153Z,59.82
2018-10-12T18:46:37.653Z,59.39
2018-10-12T18:49:07.981Z,59.17
2018-10-12T18:51:38.277Z,59.35
2018-10-12T18:54:08.804Z,59.19
2018-10-12T18:56:39.344Z,59.54
2018-10-12T18:59:10.176Z,59.16
2018-10-12T19:01:40.606Z,59.99
2018-10-12T19:04:11.008Z,60.11
2018-10-12T19:06:41.556Z,59.66
2018-10-12T19:09:12.092Z,60.10
2018-10-12T19:11:42.490Z,60.53
2018-10-12T19:14:13.038Z,60.32
2018-10-12T19:16:43.947Z,60.83
2018-10-12T19:19:14.386Z,61.60
2018-10-12T19:21:44.824Z,60.84
2018-10-12T19:24:15.205Z,61.05
2018-10-12T19:26:45.548Z,61.30
2018-10-12T19:29:15.885Z,61.66
2018-10-12T19:31:46.328Z,61.11
2018-10-12T19:34:16.689Z,62.18
2018-10-12T19:36:47.463Z,62.22
2018-10-12T19:39:17.956Z,62.31
2018-10-12T19:41:48.459Z,62.92
2018-10-12T19:44:18.800Z,63.00
2018-10-12T19:46:49.096Z,63.61
2018-10-12T19:49:19.447Z,63.06
2018-10-12T19:51:49.841Z,62.28
2018-10-12T19:54:20.229Z,62.17
2018-10-12T19:56:50.541Z,61.69
2018-10-12T19:59:21.127Z,61.05
2018-10-12T20:01:51.536Z,60.08
2018-10-12T20:04:21.832Z,60.87
2018-10-12T20:06:52.416Z,60.87
2018-10-12T20:09:22.924Z,60.80
2018-10-12T20:11:53.180Z,60.59
2018-10-12T20:14:24.059Z,60.64
2018-10-12T20:16:54.564Z,60.96
2018-10-12T20:19:25.112Z,61.25
2018-10-12T20:21:55.526Z,61.10
2018-10-12T20:24:26.036Z,60.62
2018-10-12T20:26:56.536Z,60.90
2018-10-12T20:29:27.009Z,61.20
2018-10-12T20:31:57.973Z,60.67
2018-10-12T20:34:28.341Z,61.62
2018-10-12T20:36:58.846Z,61.99
2018-10-12T20:39:29.296Z,62.31
2018-10-12T20:41:59.698Z,62.14
2018-10-12T20:44:30.077Z,62.00
2018-10-12T20:47:00.442Z,61.53
2018-10-12T20:49:31.037Z,62.62
2018-10-12T20:52:01.499Z,62.81
2018-10-12T20:54:31.960Z,62.88
2018-10-12T20:57:02.563Z,63.54
2018-10-12T20:59:33.180Z,62.59
2018-10-12T21:02:03.656Z,62.60
2018-10-12T21:04:33.891Z,62.90
2018-10-12T21:07:04.220Z,63.94
2018-10-12T21:09:34.554Z,63.42
2018-10-12T21:12:05.068Z,64.00
2018-10-12T21:14:35.462Z,64.60
2018-10-12T21:17:05.834Z,64.75
2018-10-12T21:19:36.384Z,64.53
2018-10-12T21:22:06.695Z,65.18
2018-10-12T21:24:37.055Z,64.83
2018-10-12T21:27:07.740Z,64.81
2018-10-12T21:29:37.991Z,65.72
2018-10-12T21:32:08.534Z,65.22
2018-10-12T21:34:38.883Z,65.39
2018-10-12T21:37:09.382Z,65.10
2018-10-12T21:39:39.810Z,66.06
2018-10-12T21:42:10.352Z,66.15
2018-10-12T21:44:40.685Z,65.64
2018-10-12T21:47:11.277Z,65.50
2018-10-12T21:49:41.688Z,65.44
2018-10-12T21:52:12.140Z,65.46
2018-10-12T21:54:42.534Z,65.77
2018-10-12T21:57:12.815Z,65.52
2018-10-12T21:59:43.312Z,65.92
2018-10-12T22:02:13.783Z,65.60
2018-10-12T22:04:44.280Z,65.88
2018-10-12T22:07:14.772Z,65.84
2018-10-12T22:09:45.063Z,65.98
2018-10-12T22:12:15.448Z,65.79
2018-10-12T22:14:46.064Z,66.66
2018-10-12T22:17:16.372Z,67.11
2018-10-12T22:19:46.605Z,66.62
2018-10-12T22:22:16.917Z,66.91
2018-10-12T22:24:47.382Z,66.66
2018-10-12T22:27:17.693Z,67.09
2018-10-12T22:29:48.039Z,67.88
2018-10-12T22:32:18.327Z,67.93
2018-10-12T22:34:48.797Z,67.39
2018-10-12T22:37:19.356Z,68.04
2018-10-12T22:39:49.884Z,67.52
2018-10-12T22:42:20.492Z,68.11
2018-10-12T22:44:51.071Z,67.68
2018-10-12T22:47:21.316Z,68.63
2018-10-12T22:49:51.688Z,68.09
2018-10-12T22:52:21.971Z,68.54
2018-10-12T22:54:52.384Z,68.77
2018-10-12T22:57:22.721Z,68.98
2018-10-12T22:59:53.319Z,68.77
2018-10-12T23:02:23.699Z,69.08
2018-10-12T23:04:54.286Z,69.18
2018-10-12T23:07:24.788Z,69.25
2018-10-12T23:09:55.146Z,69.13
2018-10-12T23:12:25.447Z,69.71
2018-10-12T23:14:55.866Z,70.26
2018-10-12T23:17:26.371Z,69.62
2018-10-12T23:19:56.884Z,69.71
2018-10-12T23:22:27.363Z,69.74
2018-10-12T23:24:57.611Z,69.72
2018-10-12T23:27:28.113Z,70.05
2018-10-12T23:29:58.576Z,70.49
2018-10-12T23:32:28.996Z,70.43
2018-10-12T23:34:59.419Z,71.24
2018-10-12T23:37:29.731Z,71.04
2018-10-12T23:40:00.203Z,70.68
2018-10-12T23:42:30.865Z,71.26
2018-10-12T23:45:01.419Z,70.55
2018-10-12T23:47:32.086Z,70.80
2018-10-12T23:50:02.566Z,71.03
2018-10-12T23:52:33.624Z,71.06
2018-10-12T23:55:04.256Z,71.11
2018-10-12T23:57:34.735Z,72.06
